Glencoe, California
Current Conditions -  °F | °C
As of 1:55 AM on Saturday 01 Nov 2014 (Local Time) from KO22 Reporting Station
Overcast Overcast  
Wind Chill:   Ceiling: 500
Heat Index:   Visibility: 5mi
Dew Point:   Wind: 5mph
Humidity: 100%   Direction: 160°SSE
Pressure: 29.74"   Gusts: NA
Location:  38.35°N, 120.58°W
Report Text: KO22 010855Z AUTO 16004KT 5SM BKN005 OVC040 08/08 A2974 RMK AO1 P0005
Loading
Personal Weather Stations






























Interactive Weather Map
Tropical Storm Tracking
New forecast layout! Learn more

10-Day Weather Forecast

Advertisements
Track Severe Weather on mobile